createdAt,value
2022-12-23T00:01:34.984Z,24.92
2022-12-23T00:04:03.454Z,22.10
2022-12-23T00:06:31.827Z,22.38
2022-12-23T00:09:00.788Z,20.42
2022-12-23T00:11:29.864Z,19.02
2022-12-23T00:14:21.097Z,22.17
2022-12-23T00:16:51.646Z,23.13
2022-12-23T00:19:20.465Z,23.23
2022-12-23T00:21:49.458Z,23.13
2022-12-23T00:24:17.960Z,24.17
2022-12-23T00:26:46.300Z,22.27
2022-12-23T00:29:14.508Z,21.95
2022-12-23T00:31:42.927Z,23.08
2022-12-23T00:34:13.355Z,20.33
2022-12-23T00:36:41.700Z,20.58
2022-12-23T00:39:31.422Z,18.45
2022-12-23T00:42:19.032Z,21.40
2022-12-23T00:44:47.275Z,19.15
2022-12-23T00:47:35.327Z,22.85
2022-12-23T00:50:03.608Z,24.00
2022-12-23T00:52:31.931Z,22.08
2022-12-23T00:55:00.161Z,23.85
2022-12-23T00:57:28.404Z,25.17
2022-12-23T00:59:56.645Z,26.33
2022-12-23T01:02:43.619Z,25.23
2022-12-23T01:05:30.917Z,26.10
2022-12-23T01:07:59.155Z,27.08
2022-12-23T01:10:27.465Z,24.05
2022-12-23T01:12:55.763Z,24.95
2022-12-23T01:15:24.691Z,25.23
2022-12-23T01:17:52.986Z,24.63
2022-12-23T01:20:21.424Z,26.38
2022-12-23T01:22:49.805Z,25.20
2022-12-23T01:25:19.052Z,25.65
2022-12-23T01:27:47.290Z,25.50
2022-12-23T01:30:15.887Z,24.95
2022-12-23T01:32:44.138Z,27.05
2022-12-23T01:35:12.419Z,25.42
2022-12-23T01:37:41.112Z,24.73
2022-12-23T01:40:10.155Z,26.90
2022-12-23T01:42:45.131Z,26.33
2022-12-23T01:45:30.663Z,25.30
2022-12-23T01:48:13.701Z,26.38
2022-12-23T01:50:48.000Z,26.20
2022-12-23T01:53:27.396Z,26.05
2022-12-23T01:56:15.868Z,26.30
2022-12-23T01:58:46.720Z,27.05
2022-12-23T02:01:33.726Z,26.70
2022-12-23T02:04:10.214Z,26.35
2022-12-23T02:07:02.172Z,24.20
2022-12-23T02:09:33.861Z,27.65
2022-12-23T02:12:38.843Z,24.60
2022-12-23T02:15:47.776Z,27.92
2022-12-23T02:18:24.778Z,28.05
2022-12-23T02:21:13.778Z,26.40
2022-12-23T02:24:03.234Z,27.17
2022-12-23T02:27:01.792Z,25.38
2022-12-23T02:30:23.272Z,25.92
2022-12-23T02:33:25.189Z,27.58
2022-12-23T02:39:00.543Z,27.52
2022-12-23T02:41:58.839Z,26.20
2022-12-23T02:44:39.504Z,24.58
2022-12-23T02:47:16.631Z,23.20
2022-12-23T02:49:51.606Z,21.83
2022-12-23T02:52:22.445Z,18.60
2022-12-23T02:54:57.545Z,28.23
2022-12-23T02:57:33.422Z,23.58
2022-12-23T03:00:02.569Z,24.83
2022-12-23T03:02:35.339Z,16.77
2022-12-23T03:05:03.872Z,22.63
2022-12-23T03:07:39.607Z,28.08
2022-12-23T03:10:16.552Z,28.00
2022-12-23T03:13:06.276Z,22.85
2022-12-23T03:16:00.647Z,26.63
2022-12-23T03:18:38.461Z,27.23
2022-12-23T03:21:16.670Z,24.50
2022-12-23T03:23:55.878Z,26.77
2022-12-23T03:26:58.884Z,26.65
2022-12-23T03:29:42.013Z,24.50
2022-12-23T03:32:14.280Z,26.80
2022-12-23T03:34:46.471Z,20.67
2022-12-23T03:37:19.767Z,27.65
2022-12-23T03:40:06.358Z,22.75
2022-12-23T03:42:39.446Z,25.60
2022-12-23T03:45:38.207Z,26.65
2022-12-23T03:48:16.538Z,23.55
2022-12-23T03:50:47.443Z,25.48
2022-12-23T03:53:22.613Z,28.52
2022-12-23T03:55:57.775Z,27.58
2022-12-23T03:58:59.517Z,25.90
2022-12-23T04:01:42.710Z,27.27
2022-12-23T04:04:21.965Z,28.48
2022-12-23T04:07:07.497Z,15.23
2022-12-23T04:09:37.460Z,13.65
2022-12-23T04:12:06.078Z,19.73
2022-12-23T04:14:36.628Z,25.65
2022-12-23T04:17:04.935Z,14.63
2022-12-23T04:19:34.264Z,27.30
2022-12-23T04:22:02.556Z,24.25
2022-12-23T04:24:30.888Z,19.38
2022-12-23T04:26:59.121Z,25.27
2022-12-23T04:29:27.476Z,26.77
2022-12-23T04:31:55.853Z,25.02
2022-12-23T04:34:24.105Z,26.88
2022-12-23T04:36:52.377Z,27.95
2022-12-23T04:39:20.822Z,27.20
2022-12-23T04:41:49.810Z,27.10
2022-12-23T04:44:21.170Z,27.63
2022-12-23T04:46:49.484Z,27.95
2022-12-23T04:49:17.765Z,16.67
2022-12-23T04:51:46.000Z,19.35
2022-12-23T04:54:14.305Z,18.80
2022-12-23T04:56:42.561Z,12.50
2022-12-23T04:59:11.713Z,11.95
2022-12-23T05:01:40.388Z,25.35
2022-12-23T05:04:08.890Z,22.02
2022-12-23T05:06:37.765Z,21.20
2022-12-23T05:09:07.063Z,26.05
2022-12-23T05:11:41.735Z,25.70
2022-12-23T05:14:12.041Z,17.05
2022-12-23T05:16:40.858Z,23.35
2022-12-23T05:19:09.551Z,18.85
2022-12-23T05:21:37.813Z,21.42
2022-12-23T05:24:06.188Z,25.20
2022-12-23T05:26:34.478Z,27.45
2022-12-23T05:29:02.719Z,24.00
2022-12-23T05:31:31.020Z,24.25
2022-12-23T05:34:05.704Z,25.75
2022-12-23T05:36:34.877Z,25.40
2022-12-23T05:39:03.093Z,26.50
2022-12-23T05:41:31.842Z,13.27
2022-12-23T05:44:00.878Z,19.75
2022-12-23T05:46:29.183Z,24.42
2022-12-23T05:48:57.443Z,27.42
2022-12-23T05:51:25.855Z,28.75
2022-12-23T05:53:54.139Z,27.85
2022-12-23T05:56:22.384Z,25.70
2022-12-23T05:58:50.643Z,26.95
2022-12-23T06:01:18.868Z,27.38
2022-12-23T06:03:47.172Z,12.15
2022-12-23T06:06:15.677Z,28.25
2022-12-23T06:08:43.948Z,25.20
2022-12-23T06:11:13.634Z,27.10
2022-12-23T06:13:41.867Z,28.17
2022-12-23T06:16:10.104Z,25.80
2022-12-23T06:18:38.400Z,26.50
2022-12-23T06:21:06.987Z,27.63
2022-12-23T06:23:35.277Z,28.15
2022-12-23T06:26:04.540Z,27.90
2022-12-23T06:28:32.913Z,18.67
2022-12-23T06:31:01.164Z,25.33
2022-12-23T06:33:29.399Z,28.17
2022-12-23T06:35:57.867Z,25.60
2022-12-23T06:38:26.115Z,25.13
2022-12-23T06:40:54.361Z,15.82
2022-12-23T06:43:22.722Z,21.83
2022-12-23T06:45:51.391Z,26.67
2022-12-23T06:48:19.669Z,27.40
2022-12-23T06:50:48.098Z,27.75
2022-12-23T06:53:16.420Z,27.98
2022-12-23T06:55:44.628Z,27.83
2022-12-23T06:58:12.934Z,27.67
2022-12-23T07:00:41.163Z,26.65
2022-12-23T07:03:09.684Z,27.65
2022-12-23T07:05:38.105Z,28.80
2022-12-23T07:08:06.769Z,27.88
2022-12-23T07:10:35.543Z,24.10
2022-12-23T07:13:03.815Z,28.58
2022-12-23T07:15:32.019Z,25.65
2022-12-23T07:18:00.287Z,27.65
2022-12-23T07:20:28.566Z,28.98
2022-12-23T07:22:58.004Z,13.13
2022-12-23T07:25:26.956Z,25.52
2022-12-23T07:27:56.409Z,31.80
2022-12-23T07:30:25.068Z,30.50
2022-12-23T07:32:53.740Z,31.55
2022-12-23T07:35:22.014Z,29.88
2022-12-23T07:37:54.867Z,29.73
2022-12-23T07:40:24.217Z,30.27
2022-12-23T07:42:58.510Z,23.67
2022-12-23T07:45:30.951Z,31.05
2022-12-23T07:48:03.539Z,33.38
2022-12-23T07:50:31.848Z,31.23
2022-12-23T07:53:00.050Z,33.10
2022-12-23T07:55:28.317Z,32.13
2022-12-23T07:57:56.721Z,32.58
2022-12-23T08:00:24.987Z,30.17
2022-12-23T08:02:53.295Z,27.67
2022-12-23T08:05:22.061Z,16.98
2022-12-23T08:07:50.955Z,27.25
2022-12-23T08:10:19.363Z,30.25
2022-12-23T08:12:47.825Z,28.98
2022-12-23T08:15:16.159Z,20.40
2022-12-23T08:17:44.447Z,31.50
2022-12-23T08:20:13.151Z,25.58
2022-12-23T08:22:41.389Z,25.60
2022-12-23T08:25:10.002Z,31.20
2022-12-23T08:27:38.259Z,30.25
2022-12-23T08:30:07.191Z,33.53
2022-12-23T08:32:35.458Z,29.10
2022-12-23T08:35:03.718Z,33.25
2022-12-23T08:37:31.917Z,34.03
2022-12-23T08:40:00.178Z,32.53
2022-12-23T08:42:28.479Z,32.08
2022-12-23T08:44:56.895Z,33.22
2022-12-23T08:47:25.106Z,29.90
2022-12-23T08:49:53.374Z,32.65
2022-12-23T08:52:21.597Z,30.35
2022-12-23T08:54:49.805Z,31.00
2022-12-23T08:57:18.037Z,23.48
2022-12-23T08:59:46.272Z,31.48
2022-12-23T09:02:14.723Z,30.35
2022-12-23T09:04:43.252Z,32.65
2022-12-23T09:07:11.508Z,31.73
2022-12-23T09:09:40.034Z,32.40
2022-12-23T09:12:08.525Z,32.03
2022-12-23T09:14:36.803Z,32.10
2022-12-23T09:17:05.325Z,32.17
2022-12-23T09:19:34.050Z,25.23
2022-12-23T09:22:02.282Z,22.65
2022-12-23T09:24:30.556Z,20.17
2022-12-23T09:26:58.809Z,22.05
2022-12-23T09:29:27.077Z,24.27
2022-12-23T09:31:55.308Z,28.58
2022-12-23T09:34:23.573Z,29.65
2022-12-23T09:36:55.301Z,30.92
2022-12-23T09:39:24.976Z,31.10
2022-12-23T09:42:05.394Z,34.72
2022-12-23T09:44:51.899Z,30.38
2022-12-23T09:47:24.341Z,32.72
2022-12-23T09:50:05.023Z,21.92
2022-12-23T09:53:00.850Z,30.50
2022-12-23T09:55:50.900Z,32.85
2022-12-23T09:58:29.822Z,28.73
2022-12-23T10:01:14.403Z,32.92
2022-12-23T10:03:55.673Z,29.60
2022-12-23T10:06:31.903Z,35.00
2022-12-23T10:09:03.799Z,32.30
2022-12-23T10:11:46.158Z,32.67
2022-12-23T10:14:30.828Z,16.88
2022-12-23T10:17:22.456Z,23.08
2022-12-23T10:19:51.804Z,31.55
2022-12-23T10:22:33.895Z,33.22
2022-12-23T10:25:06.845Z,22.20
2022-12-23T10:27:40.929Z,31.20
2022-12-23T10:30:34.403Z,26.73
2022-12-23T10:33:07.886Z,25.83
2022-12-23T10:35:49.373Z,13.93
2022-12-23T10:38:56.150Z,30.08
2022-12-23T10:41:56.394Z,33.30
2022-12-23T10:44:57.293Z,33.25
2022-12-23T10:47:46.597Z,31.77
2022-12-23T10:50:20.315Z,32.15
2022-12-23T10:52:50.651Z,34.05
2022-12-23T10:55:33.755Z,32.05
2022-12-23T10:58:19.147Z,32.63
2022-12-23T11:00:54.984Z,13.23
2022-12-23T11:03:42.927Z,30.83
2022-12-23T11:06:12.991Z,21.83
2022-12-23T11:08:41.797Z,15.00
2022-12-23T11:11:10.035Z,32.30
2022-12-23T11:13:44.141Z,23.13
2022-12-23T11:16:24.571Z,22.92
2022-12-23T11:19:05.735Z,28.10
2022-12-23T11:21:34.929Z,34.08
2022-12-23T11:24:16.286Z,30.75
2022-12-23T11:26:47.234Z,33.60
2022-12-23T11:29:34.527Z,31.40
2022-12-23T11:32:06.316Z,24.13
2022-12-23T11:34:39.213Z,20.92
2022-12-23T11:37:07.821Z,29.85
2022-12-23T11:39:38.600Z,32.83
2022-12-23T11:42:21.203Z,32.17
2022-12-23T11:44:53.085Z,31.85
2022-12-23T11:47:24.227Z,33.53
2022-12-23T11:49:58.488Z,30.88
2022-12-23T11:52:31.991Z,30.15
2022-12-23T11:55:05.710Z,30.80
2022-12-23T11:57:42.174Z,28.17
2022-12-23T12:00:22.070Z,33.25
2022-12-23T12:03:00.678Z,32.15
2022-12-23T12:05:39.156Z,33.40
2022-12-23T12:08:31.044Z,20.10
2022-12-23T12:11:30.656Z,29.92
2022-12-23T12:14:06.222Z,16.27
2022-12-23T12:16:58.908Z,19.75
2022-12-23T12:19:53.070Z,31.83
2022-12-23T12:22:39.795Z,29.90
2022-12-23T12:25:24.146Z,17.15
2022-12-23T12:28:01.056Z,16.90
2022-12-23T12:30:35.885Z,31.48
2022-12-23T12:33:13.455Z,23.88
2022-12-23T12:36:00.238Z,30.02
2022-12-23T12:38:36.057Z,22.38
2022-12-23T12:41:21.678Z,14.55
2022-12-23T12:44:23.194Z,27.48
2022-12-23T12:46:58.418Z,12.40
2022-12-23T12:49:44.573Z,16.27
2022-12-23T12:52:21.103Z,12.18
2022-12-23T12:54:58.046Z,19.23
2022-12-23T12:57:26.569Z,31.15
2022-12-23T13:00:05.292Z,23.05
2022-12-23T13:02:51.269Z,20.10
2022-12-23T13:05:54.852Z,26.38
2022-12-23T13:09:03.483Z,29.77
2022-12-23T13:11:47.429Z,26.60
2022-12-23T13:14:40.737Z,30.88
2022-12-23T13:17:14.165Z,23.58
2022-12-23T13:20:11.521Z,25.70
2022-12-23T13:22:40.547Z,30.50
2022-12-23T13:25:44.017Z,25.23
2022-12-23T13:28:45.941Z,30.30
2022-12-23T13:34:28.806Z,30.17
2022-12-23T13:37:01.079Z,27.77
2022-12-23T13:39:57.745Z,29.75
2022-12-23T13:42:40.531Z,13.57
2022-12-23T13:45:16.317Z,23.05
2022-12-23T13:48:30.117Z,16.13
2022-12-23T13:51:21.920Z,22.58
2022-12-23T13:54:14.686Z,34.45
2022-12-23T13:56:49.270Z,30.10
2022-12-23T13:59:18.039Z,31.73
2022-12-23T14:01:49.381Z,31.55
2022-12-23T14:04:32.343Z,33.63
2022-12-23T14:07:07.080Z,30.95
2022-12-23T14:09:39.124Z,34.33
2022-12-23T14:12:36.847Z,33.28
2022-12-23T14:15:33.274Z,32.85
2022-12-23T14:18:32.070Z,33.95
2022-12-23T14:21:27.427Z,32.88
2022-12-23T14:24:22.543Z,34.33
2022-12-23T14:26:56.710Z,35.35
2022-12-23T14:29:47.010Z,35.60
2022-12-23T14:32:23.168Z,32.90
2022-12-23T14:35:18.353Z,33.78
2022-12-23T14:38:17.698Z,34.70
2022-12-23T14:41:19.292Z,35.35
2022-12-23T14:43:56.644Z,36.70
2022-12-23T14:46:37.232Z,33.40
2022-12-23T14:49:37.024Z,32.38
2022-12-23T14:51:57.014Z,32.58
2022-12-23T14:57:29.181Z,33.78
2022-12-23T15:00:03.882Z,33.55
2022-12-23T15:02:42.571Z,34.33
2022-12-23T15:05:11.578Z,34.53
2022-12-23T15:07:45.298Z,33.38
2022-12-23T15:10:20.065Z,31.77
2022-12-23T15:12:53.099Z,32.38
2022-12-23T15:15:27.558Z,31.92
2022-12-23T15:18:13.554Z,34.40
2022-12-23T15:20:41.973Z,35.95
2022-12-23T15:23:12.991Z,35.67
2022-12-23T15:25:47.411Z,35.70
2022-12-23T15:28:22.371Z,36.25
2022-12-23T15:30:54.666Z,34.72
2022-12-23T15:34:01.534Z,36.60
2022-12-23T15:36:16.254Z,35.33
2022-12-23T15:38:44.530Z,34.35
2022-12-23T15:41:17.875Z,35.20
2022-12-23T15:43:47.064Z,36.78
2022-12-23T15:46:29.724Z,36.00
2022-12-23T15:48:59.287Z,35.25
2022-12-23T15:52:06.528Z,34.55
2022-12-23T15:54:35.090Z,34.13
2022-12-23T15:57:04.971Z,32.58
2022-12-23T15:59:39.598Z,34.00
2022-12-23T16:05:30.410Z,35.30
2022-12-23T16:08:34.344Z,34.53
2022-12-23T16:11:16.170Z,35.85
2022-12-23T16:14:02.092Z,35.92
2022-12-23T16:16:41.890Z,33.88
2022-12-23T16:19:42.425Z,33.60
2022-12-23T16:22:23.498Z,33.35
2022-12-23T16:24:54.876Z,32.83
2022-12-23T16:27:47.991Z,34.10
2022-12-23T16:30:22.610Z,32.47
2022-12-23T16:32:55.587Z,33.08
2022-12-23T16:35:34.559Z,34.20
2022-12-23T16:38:21.865Z,32.72
2022-12-23T16:40:55.901Z,33.35
2022-12-23T16:43:26.301Z,31.15
2022-12-23T16:45:58.095Z,33.47
2022-12-23T16:48:43.090Z,33.70
2022-12-23T16:51:17.226Z,33.17
2022-12-23T16:53:45.506Z,32.72
2022-12-23T16:56:15.471Z,33.35
2022-12-23T16:58:44.653Z,32.47
2022-12-23T17:01:44.506Z,32.95
2022-12-23T17:04:13.284Z,32.50
2022-12-23T17:06:42.421Z,32.80
2022-12-23T17:09:15.076Z,35.05
2022-12-23T17:11:54.120Z,32.88
2022-12-23T17:14:25.245Z,31.98
2022-12-23T17:16:54.019Z,33.00
2022-12-23T17:19:28.638Z,32.45
2022-12-23T17:22:02.896Z,33.00
2022-12-23T17:24:31.469Z,33.95
2022-12-23T17:26:59.788Z,33.47
2022-12-23T17:29:29.217Z,33.60
2022-12-23T17:31:57.543Z,33.63
2022-12-23T17:34:26.281Z,34.13
2022-12-23T17:36:54.886Z,33.55
2022-12-23T17:39:23.699Z,35.15
2022-12-23T17:41:53.118Z,32.88
2022-12-23T17:44:21.582Z,31.45
2022-12-23T17:46:49.932Z,32.33
2022-12-23T17:49:18.268Z,32.22
2022-12-23T17:51:46.619Z,32.85
2022-12-23T17:54:25.931Z,32.40
2022-12-23T17:56:57.292Z,31.73
2022-12-23T17:59:25.783Z,31.85
2022-12-23T18:01:54.225Z,30.55
2022-12-23T18:04:22.762Z,30.98
2022-12-23T18:06:54.294Z,31.30
2022-12-23T18:11:50.694Z,32.65
2022-12-23T18:14:32.828Z,33.45
2022-12-23T18:17:01.349Z,31.85
2022-12-23T18:19:31.738Z,29.27
2022-12-23T18:22:05.862Z,32.67
2022-12-23T18:24:34.221Z,33.80
2022-12-23T18:27:05.621Z,33.78
2022-12-23T18:32:05.437Z,34.25
2022-12-23T18:34:37.540Z,33.67
2022-12-23T18:37:06.052Z,34.45
2022-12-23T18:39:36.793Z,34.30
2022-12-23T18:42:05.981Z,33.92
2022-12-23T18:44:34.252Z,34.50
2022-12-23T18:47:02.536Z,33.55
2022-12-23T18:49:30.876Z,33.47
2022-12-23T18:51:59.157Z,34.92
2022-12-23T18:54:27.505Z,34.33
2022-12-23T18:56:56.459Z,32.92
2022-12-23T18:59:30.157Z,33.78
2022-12-23T19:01:59.569Z,32.42
2022-12-23T19:04:28.944Z,33.85
2022-12-23T19:06:58.042Z,32.53
2022-12-23T19:09:26.844Z,32.60
2022-12-23T19:11:55.506Z,32.45
2022-12-23T19:14:24.228Z,32.28
2022-12-23T19:16:53.092Z,32.25
2022-12-23T19:19:22.722Z,32.92
2022-12-23T19:21:51.030Z,29.42
2022-12-23T19:24:19.580Z,31.35
2022-12-23T19:26:48.067Z,30.67
2022-12-23T19:29:16.771Z,30.33
2022-12-23T19:31:45.136Z,32.20
2022-12-23T19:34:15.662Z,31.83
2022-12-23T19:36:44.957Z,32.05
2022-12-23T19:39:17.189Z,33.85
2022-12-23T19:41:47.077Z,31.88
2022-12-23T19:44:15.924Z,32.65
2022-12-23T19:46:44.293Z,33.38
2022-12-23T19:49:19.487Z,32.17
2022-12-23T19:51:48.731Z,29.60
2022-12-23T19:54:17.480Z,31.02
2022-12-23T19:56:46.265Z,30.50
2022-12-23T19:59:14.547Z,30.00
2022-12-23T20:01:42.879Z,29.45
2022-12-23T20:04:11.629Z,31.98
2022-12-23T20:06:41.586Z,30.95
2022-12-23T20:09:12.417Z,32.53
2022-12-23T20:11:44.654Z,30.17
2022-12-23T20:14:14.969Z,31.98
2022-12-23T20:16:43.779Z,31.15
2022-12-23T20:19:12.654Z,28.67
2022-12-23T20:21:41.175Z,31.60
2022-12-23T20:24:09.709Z,31.40
2022-12-23T20:26:38.155Z,29.67
2022-12-23T20:29:06.958Z,29.60
2022-12-23T20:31:38.435Z,30.98
2022-12-23T20:34:10.234Z,29.15
2022-12-23T20:36:41.725Z,30.40
2022-12-23T20:39:10.826Z,31.55
2022-12-23T20:41:40.170Z,31.63
2022-12-23T20:44:33.982Z,32.50
2022-12-23T20:46:57.100Z,32.97
2022-12-23T20:49:25.561Z,33.08
2022-12-23T20:52:14.208Z,35.63
2022-12-23T20:54:42.590Z,32.25
2022-12-23T20:57:11.483Z,33.17
2022-12-23T20:59:39.933Z,33.42
2022-12-23T21:02:15.033Z,32.80
2022-12-23T21:04:44.273Z,32.63
2022-12-23T21:07:12.985Z,32.00
2022-12-23T21:09:41.599Z,33.45
2022-12-23T21:12:09.990Z,31.17
2022-12-23T21:14:38.365Z,33.72
2022-12-23T21:17:14.134Z,30.95
2022-12-23T21:19:42.895Z,32.28
2022-12-23T21:22:13.551Z,31.67
2022-12-23T21:24:42.012Z,29.92
2022-12-23T21:27:10.480Z,32.58
2022-12-23T21:29:41.417Z,35.60
2022-12-23T21:32:43.458Z,33.13
2022-12-23T21:35:11.915Z,34.42
2022-12-23T21:37:46.271Z,34.70
2022-12-23T21:40:42.826Z,34.35
2022-12-23T21:43:38.302Z,32.13
2022-12-23T21:46:46.941Z,35.35
2022-12-23T21:56:16.404Z,34.40
2022-12-23T22:01:47.303Z,33.75
2022-12-23T22:04:41.135Z,33.25
2022-12-23T22:08:25.621Z,31.83
2022-12-23T22:11:40.998Z,31.98
2022-12-23T22:14:12.779Z,34.55
2022-12-23T22:16:41.380Z,32.30
2022-12-23T22:19:13.524Z,33.30
2022-12-23T22:21:43.363Z,33.92
2022-12-23T22:24:35.259Z,33.22
2022-12-23T22:27:17.725Z,33.72
2022-12-23T22:29:46.441Z,32.75
2022-12-23T22:32:14.860Z,35.33
2022-12-23T22:34:43.197Z,34.10
2022-12-23T22:37:17.263Z,32.90
2022-12-23T22:39:45.532Z,35.00
2022-12-23T22:42:24.234Z,33.10
2022-12-23T22:45:25.172Z,30.80
2022-12-23T22:47:44.566Z,32.33
2022-12-23T22:50:13.119Z,32.22
2022-12-23T22:52:43.964Z,31.95
2022-12-23T22:55:15.508Z,32.25
2022-12-23T22:57:43.801Z,30.75
2022-12-23T23:00:33.597Z,30.60
2022-12-23T23:03:12.113Z,30.27
2022-12-23T23:05:43.471Z,33.45
2022-12-23T23:11:44.425Z,32.08
2022-12-23T23:14:50.342Z,30.08
2022-12-23T23:17:41.448Z,28.13
2022-12-23T23:20:15.528Z,29.10
2022-12-23T23:22:45.327Z,30.52
2022-12-23T23:25:13.771Z,29.45
2022-12-23T23:27:45.232Z,30.83
2022-12-23T23:32:45.031Z,28.67
2022-12-23T23:35:13.568Z,28.30
2022-12-23T23:37:41.896Z,29.58
2022-12-23T23:40:13.621Z,28.92
2022-12-23T23:42:45.053Z,29.00
2022-12-23T23:47:44.985Z,28.95
2022-12-23T23:50:21.032Z,28.48
2022-12-23T23:52:49.327Z,30.15
2022-12-23T23:55:23.851Z,30.25
2022-12-23T23:57:52.206Z,30.20
